KSBD/SBD METAR and TAF weather

Enter ICAO airport designator
Station Type Date Time Source
KSBD METAR 2019/04/22 23:50 UTC NOAA

KSBD 222350Z 22011KT 7SM BKN050 26/06 A2990


Station Type Date Time Source
KSBD Decoded METAR 2019/04/22 23:50 UTC NOAA

Norton Air Force Base / San Bern, CA, United States (KSBD) 34-06N 117-14W
Apr 22, 2019 - 07:50 PM EDT / 2019.04.22 2350 UTC
Wind: from the SW (220 degrees) at 13 MPH (11 KT):0
Visibility: 7 mile(s):0
Sky conditions: mostly cloudy
Temperature: 78 F (26 C)
Dew Point: 42 F (6 C)
Relative Humidity: 27%
Pressure (altimeter): 29.9 in. Hg (1012 hPa)
ob: KSBD 222350Z 22011KT 7SM BKN050 26/06 A2990
cycle: 0

Station Type Date Time Source
KSBD TAF 2019/04/22 22:18 UTC NOAA

TAF
AMD KSBD 222217Z 2222/2318 27015G20KT P6SM BKN050
FM230300 25006KT P6SM SKC
FM231700 35008KT P6SM FEW250

Example: see airport list